sensor_id;sensor_type;location;lat;lon;timestamp;P1;durP1;ratioP1;P2;durP2;ratioP2
68192;SDS011;55012;47.562;18.414;2023-06-10T00:00:17;12.65;;;7.13;;
68192;SDS011;55012;47.562;18.414;2023-06-10T00:02:42;8.57;;;5.80;;
68192;SDS011;55012;47.562;18.414;2023-06-10T00:05:08;9.95;;;5.80;;
68192;SDS011;55012;47.562;18.414;2023-06-10T00:07:34;10.35;;;5.45;;
68192;SDS011;55012;47.562;18.414;2023-06-10T00:10:04;14.02;;;8.38;;
68192;SDS011;55012;47.562;18.414;2023-06-10T00:12:31;10.02;;;6.80;;
68192;SDS011;55012;47.562;18.414;2023-06-10T00:15:02;10.55;;;6.28;;
68192;SDS011;55012;47.562;18.414;2023-06-10T00:17:28;13.85;;;6.95;;
68192;SDS011;55012;47.562;18.414;2023-06-10T00:19:54;14.13;;;6.13;;
68192;SDS011;55012;47.562;18.414;2023-06-10T00:22:20;11.82;;;6.80;;
68192;SDS011;55012;47.562;18.414;2023-06-10T00:24:47;11.05;;;5.97;;
68192;SDS011;55012;47.562;18.414;2023-06-10T00:27:12;12.95;;;7.93;;
68192;SDS011;55012;47.562;18.414;2023-06-10T00:29:38;11.95;;;7.00;;
68192;SDS011;55012;47.562;18.414;2023-06-10T00:32:04;12.05;;;6.85;;
68192;SDS011;55012;47.562;18.414;2023-06-10T00:34:30;14.77;;;9.13;;
68192;SDS011;55012;47.562;18.414;2023-06-10T00:36:55;11.63;;;5.55;;
68192;SDS011;55012;47.562;18.414;2023-06-10T00:39:24;9.85;;;5.07;;
68192;SDS011;55012;47.562;18.414;2023-06-10T00:41:50;9.35;;;4.78;;
68192;SDS011;55012;47.562;18.414;2023-06-10T00:44:15;10.88;;;6.63;;
68192;SDS011;55012;47.562;18.414;2023-06-10T00:46:42;10.05;;;6.10;;
68192;SDS011;55012;47.562;18.414;2023-06-10T00:49:08;13.68;;;7.03;;
68192;SDS011;55012;47.562;18.414;2023-06-10T00:51:34;16.33;;;7.22;;
68192;SDS011;55012;47.562;18.414;2023-06-10T00:54:01;9.75;;;5.63;;
68192;SDS011;55012;47.562;18.414;2023-06-10T00:56:27;10.32;;;5.20;;
68192;SDS011;55012;47.562;18.414;2023-06-10T00:58:53;9.38;;;5.80;;
68192;SDS011;55012;47.562;18.414;2023-06-10T01:01:19;9.82;;;5.60;;
68192;SDS011;55012;47.562;18.414;2023-06-10T01:03:45;10.82;;;5.45;;
68192;SDS011;55012;47.562;18.414;2023-06-10T01:06:22;10.13;;;5.72;;
68192;SDS011;55012;47.562;18.414;2023-06-10T01:09:12;8.55;;;5.22;;
68192;SDS011;55012;47.562;18.414;2023-06-10T01:12:05;13.05;;;6.57;;
68192;SDS011;55012;47.562;18.414;2023-06-10T01:14:44;13.60;;;6.63;;
68192;SDS011;55012;47.562;18.414;2023-06-10T01:17:11;12.70;;;6.97;;
68192;SDS011;55012;47.562;18.414;2023-06-10T01:19:37;12.23;;;5.75;;
68192;SDS011;55012;47.562;18.414;2023-06-10T01:22:03;10.32;;;6.90;;
68192;SDS011;55012;47.562;18.414;2023-06-10T01:24:29;14.35;;;7.43;;
68192;SDS011;55012;47.562;18.414;2023-06-10T01:26:58;13.90;;;7.15;;
68192;SDS011;55012;47.562;18.414;2023-06-10T01:29:28;11.02;;;6.60;;
68192;SDS011;55012;47.562;18.414;2023-06-10T01:32:15;11.48;;;6.22;;
68192;SDS011;55012;47.562;18.414;2023-06-10T01:34:46;13.18;;;6.40;;
68192;SDS011;55012;47.562;18.414;2023-06-10T01:37:15;11.85;;;6.38;;
68192;SDS011;55012;47.562;18.414;2023-06-10T01:39:44;13.15;;;6.40;;
68192;SDS011;55012;47.562;18.414;2023-06-10T01:42:11;12.73;;;6.75;;
68192;SDS011;55012;47.562;18.414;2023-06-10T01:44:38;21.35;;;7.63;;
68192;SDS011;55012;47.562;18.414;2023-06-10T01:47:04;18.35;;;7.57;;
68192;SDS011;55012;47.562;18.414;2023-06-10T01:49:30;21.52;;;8.52;;
68192;SDS011;55012;47.562;18.414;2023-06-10T01:51:55;19.17;;;8.10;;
68192;SDS011;55012;47.562;18.414;2023-06-10T01:54:21;18.15;;;7.97;;
68192;SDS011;55012;47.562;18.414;2023-06-10T01:56:46;20.52;;;8.27;;
68192;SDS011;55012;47.562;18.414;2023-06-10T01:59:12;18.02;;;7.70;;
68192;SDS011;55012;47.562;18.414;2023-06-10T02:01:37;17.73;;;7.18;;
68192;SDS011;55012;47.562;18.414;2023-06-10T02:04:03;16.45;;;6.20;;
68192;SDS011;55012;47.562;18.414;2023-06-10T02:06:28;9.48;;;5.75;;
68192;SDS011;55012;47.562;18.414;2023-06-10T02:08:54;11.63;;;5.75;;
68192;SDS011;55012;47.562;18.414;2023-06-10T02:11:19;10.63;;;5.85;;
68192;SDS011;55012;47.562;18.414;2023-06-10T02:13:45;8.30;;;5.45;;
68192;SDS011;55012;47.562;18.414;2023-06-10T02:16:11;9.95;;;5.50;;
68192;SDS011;55012;47.562;18.414;2023-06-10T02:18:37;10.13;;;5.38;;
68192;SDS011;55012;47.562;18.414;2023-06-10T02:21:03;10.77;;;5.82;;
68192;SDS011;55012;47.562;18.414;2023-06-10T02:23:28;12.48;;;7.30;;
68192;SDS011;55012;47.562;18.414;2023-06-10T02:25:54;15.02;;;7.47;;
68192;SDS011;55012;47.562;18.414;2023-06-10T02:28:19;17.35;;;8.18;;
68192;SDS011;55012;47.562;18.414;2023-06-10T02:30:45;18.17;;;8.73;;
68192;SDS011;55012;47.562;18.414;2023-06-10T02:33:11;13.65;;;7.90;;
68192;SDS011;55012;47.562;18.414;2023-06-10T02:35:40;15.30;;;8.02;;
68192;SDS011;55012;47.562;18.414;2023-06-10T02:38:06;16.58;;;8.18;;
68192;SDS011;55012;47.562;18.414;2023-06-10T02:40:31;17.70;;;8.40;;
68192;SDS011;55012;47.562;18.414;2023-06-10T02:42:57;15.77;;;8.15;;
68192;SDS011;55012;47.562;18.414;2023-06-10T02:45:23;13.80;;;7.72;;
68192;SDS011;55012;47.562;18.414;2023-06-10T02:47:49;18.70;;;8.48;;
68192;SDS011;55012;47.562;18.414;2023-06-10T02:50:14;24.13;;;8.73;;
68192;SDS011;55012;47.562;18.414;2023-06-10T02:52:40;21.25;;;8.88;;
68192;SDS011;55012;47.562;18.414;2023-06-10T02:55:06;34.03;;;9.73;;
68192;SDS011;55012;47.562;18.414;2023-06-10T02:57:31;28.88;;;10.00;;
68192;SDS011;55012;47.562;18.414;2023-06-10T02:59:57;45.03;;;10.45;;
68192;SDS011;55012;47.562;18.414;2023-06-10T03:02:23;165.88;;;13.13;;
68192;SDS011;55012;47.562;18.414;2023-06-10T03:04:53;41.17;;;11.52;;
68192;SDS011;55012;47.562;18.414;2023-06-10T03:07:21;49.15;;;12.70;;
68192;SDS011;55012;47.562;18.414;2023-06-10T03:09:48;55.85;;;13.32;;
68192;SDS011;55012;47.562;18.414;2023-06-10T03:12:13;46.67;;;12.70;;
68192;SDS011;55012;47.562;18.414;2023-06-10T03:14:39;48.05;;;14.93;;
68192;SDS011;55012;47.562;18.414;2023-06-10T03:17:05;80.35;;;14.98;;
68192;SDS011;55012;47.562;18.414;2023-06-10T03:19:31;42.15;;;15.30;;
68192;SDS011;55012;47.562;18.414;2023-06-10T03:22:06;33.42;;;14.68;;
68192;SDS011;55012;47.562;18.414;2023-06-10T03:24:36;41.90;;;14.43;;
68192;SDS011;55012;47.562;18.414;2023-06-10T03:27:06;42.17;;;15.05;;
68192;SDS011;55012;47.562;18.414;2023-06-10T03:29:40;45.78;;;14.73;;
68192;SDS011;55012;47.562;18.414;2023-06-10T03:32:06;43.13;;;15.40;;
68192;SDS011;55012;47.562;18.414;2023-06-10T03:34:31;49.08;;;15.80;;
68192;SDS011;55012;47.562;18.414;2023-06-10T03:36:57;62.38;;;15.73;;
68192;SDS011;55012;47.562;18.414;2023-06-10T03:39:23;58.03;;;13.98;;
68192;SDS011;55012;47.562;18.414;2023-06-10T03:41:51;52.28;;;13.02;;
68192;SDS011;55012;47.562;18.414;2023-06-10T03:44:17;44.75;;;14.30;;
68192;SDS011;55012;47.562;18.414;2023-06-10T03:46:42;99.00;;;14.98;;
68192;SDS011;55012;47.562;18.414;2023-06-10T03:49:08;51.35;;;13.68;;
68192;SDS011;55012;47.562;18.414;2023-06-10T03:51:35;32.58;;;13.25;;
68192;SDS011;55012;47.562;18.414;2023-06-10T03:54:01;45.80;;;13.85;;
68192;SDS011;55012;47.562;18.414;2023-06-10T03:56:27;61.83;;;12.98;;
68192;SDS011;55012;47.562;18.414;2023-06-10T03:58:53;65.55;;;12.40;;
68192;SDS011;55012;47.562;18.414;2023-06-10T04:01:19;125.32;;;14.63;;
68192;SDS011;55012;47.562;18.414;2023-06-10T04:03:46;66.15;;;14.98;;
68192;SDS011;55012;47.562;18.414;2023-06-10T04:06:14;73.25;;;14.98;;
68192;SDS011;55012;47.562;18.414;2023-06-10T04:08:41;105.70;;;13.90;;
68192;SDS011;55012;47.562;18.414;2023-06-10T04:11:06;110.80;;;14.48;;
68192;SDS011;55012;47.562;18.414;2023-06-10T04:13:32;120.43;;;15.95;;
68192;SDS011;55012;47.562;18.414;2023-06-10T04:15:57;86.68;;;15.15;;
68192;SDS011;55012;47.562;18.414;2023-06-10T04:18:23;161.85;;;17.13;;
68192;SDS011;55012;47.562;18.414;2023-06-10T04:20:48;160.32;;;16.88;;
68192;SDS011;55012;47.562;18.414;2023-06-10T04:23:14;119.82;;;15.93;;
68192;SDS011;55012;47.562;18.414;2023-06-10T04:25:39;221.18;;;18.85;;
68192;SDS011;55012;47.562;18.414;2023-06-10T04:28:05;146.13;;;14.88;;
68192;SDS011;55012;47.562;18.414;2023-06-10T04:30:30;159.48;;;15.50;;
68192;SDS011;55012;47.562;18.414;2023-06-10T04:32:56;149.73;;;17.13;;
68192;SDS011;55012;47.562;18.414;2023-06-10T04:35:22;156.38;;;17.45;;
68192;SDS011;55012;47.562;18.414;2023-06-10T04:37:47;187.35;;;17.55;;
68192;SDS011;55012;47.562;18.414;2023-06-10T04:40:13;338.42;;;22.90;;
68192;SDS011;55012;47.562;18.414;2023-06-10T04:42:41;205.43;;;18.05;;
68192;SDS011;55012;47.562;18.414;2023-06-10T04:45:07;274.23;;;21.45;;
68192;SDS011;55012;47.562;18.414;2023-06-10T04:47:33;95.40;;;19.33;;
68192;SDS011;55012;47.562;18.414;2023-06-10T04:49:59;167.63;;;20.25;;
68192;SDS011;55012;47.562;18.414;2023-06-10T04:52:25;93.13;;;19.38;;
68192;SDS011;55012;47.562;18.414;2023-06-10T04:54:51;209.32;;;20.33;;
68192;SDS011;55012;47.562;18.414;2023-06-10T04:57:17;324.95;;;21.88;;
68192;SDS011;55012;47.562;18.414;2023-06-10T04:59:43;201.48;;;19.48;;
68192;SDS011;55012;47.562;18.414;2023-06-10T05:02:08;121.95;;;17.17;;
68192;SDS011;55012;47.562;18.414;2023-06-10T05:04:34;137.88;;;17.80;;
68192;SDS011;55012;47.562;18.414;2023-06-10T05:06:59;257.65;;;20.50;;
68192;SDS011;55012;47.562;18.414;2023-06-10T05:09:25;255.80;;;20.30;;
68192;SDS011;55012;47.562;18.414;2023-06-10T05:11:51;344.42;;;20.30;;
68192;SDS011;55012;47.562;18.414;2023-06-10T05:14:18;150.18;;;17.55;;
68192;SDS011;55012;47.562;18.414;2023-06-10T05:16:45;97.13;;;16.73;;
68192;SDS011;55012;47.562;18.414;2023-06-10T05:19:11;140.18;;;17.38;;
68192;SDS011;55012;47.562;18.414;2023-06-10T05:21:36;246.80;;;18.50;;
68192;SDS011;55012;47.562;18.414;2023-06-10T05:24:02;269.70;;;19.90;;
68192;SDS011;55012;47.562;18.414;2023-06-10T05:26:27;81.20;;;15.15;;
68192;SDS011;55012;47.562;18.414;2023-06-10T05:28:54;50.00;;;15.43;;
68192;SDS011;55012;47.562;18.414;2023-06-10T05:31:19;51.70;;;15.27;;
68192;SDS011;55012;47.562;18.414;2023-06-10T05:33:45;127.78;;;16.65;;
68192;SDS011;55012;47.562;18.414;2023-06-10T05:36:10;35.38;;;13.82;;
68192;SDS011;55012;47.562;18.414;2023-06-10T05:38:36;33.55;;;14.68;;
68192;SDS011;55012;47.562;18.414;2023-06-10T05:41:01;25.73;;;13.43;;
68192;SDS011;55012;47.562;18.414;2023-06-10T05:43:26;25.90;;;14.05;;
68192;SDS011;55012;47.562;18.414;2023-06-10T05:45:52;21.13;;;12.38;;
68192;SDS011;55012;47.562;18.414;2023-06-10T05:48:17;21.13;;;12.30;;
68192;SDS011;55012;47.562;18.414;2023-06-10T05:50:44;19.33;;;11.70;;
68192;SDS011;55012;47.562;18.414;2023-06-10T05:53:13;19.65;;;10.93;;
68192;SDS011;55012;47.562;18.414;2023-06-10T05:55:42;20.48;;;12.13;;
68192;SDS011;55012;47.562;18.414;2023-06-10T05:58:08;19.80;;;12.50;;
68192;SDS011;55012;47.562;18.414;2023-06-10T06:00:34;17.13;;;11.00;;
68192;SDS011;55012;47.562;18.414;2023-06-10T06:03:00;16.02;;;10.57;;
68192;SDS011;55012;47.562;18.414;2023-06-10T06:05:25;15.65;;;10.82;;
68192;SDS011;55012;47.562;18.414;2023-06-10T06:07:51;16.70;;;10.82;;
68192;SDS011;55012;47.562;18.414;2023-06-10T06:10:17;30.75;;;12.60;;
68192;SDS011;55012;47.562;18.414;2023-06-10T06:12:43;21.20;;;12.35;;
68192;SDS011;55012;47.562;18.414;2023-06-10T06:15:09;21.83;;;12.90;;
68192;SDS011;55012;47.562;18.414;2023-06-10T06:17:36;25.45;;;12.55;;
68192;SDS011;55012;47.562;18.414;2023-06-10T06:20:02;20.05;;;12.77;;
68192;SDS011;55012;47.562;18.414;2023-06-10T06:22:28;21.42;;;12.32;;
68192;SDS011;55012;47.562;18.414;2023-06-10T06:24:53;20.20;;;12.77;;
68192;SDS011;55012;47.562;18.414;2023-06-10T06:27:19;20.13;;;12.82;;
68192;SDS011;55012;47.562;18.414;2023-06-10T06:29:44;22.30;;;12.82;;
68192;SDS011;55012;47.562;18.414;2023-06-10T06:32:09;20.17;;;11.88;;
68192;SDS011;55012;47.562;18.414;2023-06-10T06:34:35;20.23;;;12.45;;
68192;SDS011;55012;47.562;18.414;2023-06-10T06:37:00;18.10;;;11.85;;
68192;SDS011;55012;47.562;18.414;2023-06-10T06:39:26;19.77;;;11.45;;
68192;SDS011;55012;47.562;18.414;2023-06-10T06:41:52;20.30;;;11.65;;
68192;SDS011;55012;47.562;18.414;2023-06-10T06:44:18;18.67;;;12.23;;
68192;SDS011;55012;47.562;18.414;2023-06-10T06:46:43;21.02;;;13.10;;
68192;SDS011;55012;47.562;18.414;2023-06-10T06:49:09;23.02;;;12.57;;
68192;SDS011;55012;47.562;18.414;2023-06-10T06:51:34;20.15;;;11.73;;
68192;SDS011;55012;47.562;18.414;2023-06-10T06:54:00;19.65;;;12.35;;
68192;SDS011;55012;47.562;18.414;2023-06-10T06:56:25;18.60;;;11.80;;
68192;SDS011;55012;47.562;18.414;2023-06-10T06:58:53;19.55;;;12.30;;
68192;SDS011;55012;47.562;18.414;2023-06-10T07:01:18;17.88;;;11.65;;
68192;SDS011;55012;47.562;18.414;2023-06-10T07:03:44;18.17;;;12.00;;
68192;SDS011;55012;47.562;18.414;2023-06-10T07:06:09;19.63;;;11.95;;
68192;SDS011;55012;47.562;18.414;2023-06-10T07:08:34;19.42;;;12.38;;
68192;SDS011;55012;47.562;18.414;2023-06-10T07:11:00;19.10;;;12.52;;
68192;SDS011;55012;47.562;18.414;2023-06-10T07:13:26;19.75;;;12.68;;
68192;SDS011;55012;47.562;18.414;2023-06-10T07:15:51;20.77;;;12.32;;
68192;SDS011;55012;47.562;18.414;2023-06-10T07:18:16;20.60;;;12.38;;
68192;SDS011;55012;47.562;18.414;2023-06-10T07:20:42;17.42;;;10.80;;
68192;SDS011;55012;47.562;18.414;2023-06-10T07:23:07;15.07;;;10.30;;
68192;SDS011;55012;47.562;18.414;2023-06-10T07:25:33;14.23;;;9.82;;
68192;SDS011;55012;47.562;18.414;2023-06-10T07:27:58;13.82;;;9.40;;
68192;SDS011;55012;47.562;18.414;2023-06-10T07:30:24;14.00;;;9.98;;
68192;SDS011;55012;47.562;18.414;2023-06-10T07:32:49;14.60;;;9.27;;
68192;SDS011;55012;47.562;18.414;2023-06-10T07:35:16;14.60;;;10.02;;
68192;SDS011;55012;47.562;18.414;2023-06-10T07:37:42;14.45;;;9.65;;
68192;SDS011;55012;47.562;18.414;2023-06-10T07:40:07;15.57;;;10.60;;
68192;SDS011;55012;47.562;18.414;2023-06-10T07:42:34;15.68;;;10.40;;
68192;SDS011;55012;47.562;18.414;2023-06-10T07:45:01;17.17;;;11.30;;
68192;SDS011;55012;47.562;18.414;2023-06-10T07:47:27;17.88;;;11.65;;
68192;SDS011;55012;47.562;18.414;2023-06-10T07:49:53;16.95;;;10.48;;
68192;SDS011;55012;47.562;18.414;2023-06-10T07:52:19;14.65;;;10.48;;
68192;SDS011;55012;47.562;18.414;2023-06-10T07:54:44;15.02;;;10.23;;
68192;SDS011;55012;47.562;18.414;2023-06-10T07:57:10;13.80;;;9.63;;
68192;SDS011;55012;47.562;18.414;2023-06-10T07:59:35;12.70;;;9.50;;
68192;SDS011;55012;47.562;18.414;2023-06-10T08:02:01;13.98;;;9.65;;
68192;SDS011;55012;47.562;18.414;2023-06-10T08:04:26;14.07;;;8.93;;
68192;SDS011;55012;47.562;18.414;2023-06-10T08:06:52;12.48;;;8.70;;
68192;SDS011;55012;47.562;18.414;2023-06-10T08:09:17;12.95;;;9.15;;
68192;SDS011;55012;47.562;18.414;2023-06-10T08:11:43;13.25;;;8.68;;
68192;SDS011;55012;47.562;18.414;2023-06-10T08:14:09;11.30;;;7.93;;
68192;SDS011;55012;47.562;18.414;2023-06-10T08:16:34;11.20;;;8.70;;
68192;SDS011;55012;47.562;18.414;2023-06-10T08:19:00;11.07;;;8.55;;
68192;SDS011;55012;47.562;18.414;2023-06-10T08:21:25;12.93;;;7.97;;
68192;SDS011;55012;47.562;18.414;2023-06-10T08:23:53;11.68;;;8.73;;
68192;SDS011;55012;47.562;18.414;2023-06-10T08:26:19;15.48;;;8.13;;
68192;SDS011;55012;47.562;18.414;2023-06-10T08:28:45;11.15;;;8.50;;
68192;SDS011;55012;47.562;18.414;2023-06-10T08:31:10;11.57;;;8.27;;
68192;SDS011;55012;47.562;18.414;2023-06-10T08:33:36;11.23;;;8.48;;
68192;SDS011;55012;47.562;18.414;2023-06-10T08:36:01;11.93;;;8.95;;
68192;SDS011;55012;47.562;18.414;2023-06-10T08:38:27;12.65;;;8.40;;
68192;SDS011;55012;47.562;18.414;2023-06-10T08:40:53;12.65;;;8.52;;
68192;SDS011;55012;47.562;18.414;2023-06-10T08:46:06;11.38;;;8.82;;
68192;SDS011;55012;47.562;18.414;2023-06-10T08:48:34;12.55;;;8.82;;
68192;SDS011;55012;47.562;18.414;2023-06-10T08:51:04;12.85;;;9.27;;
68192;SDS011;55012;47.562;18.414;2023-06-10T08:53:30;13.75;;;9.80;;
68192;SDS011;55012;47.562;18.414;2023-06-10T08:56:00;14.55;;;8.95;;
68192;SDS011;55012;47.562;18.414;2023-06-10T08:58:29;11.73;;;8.32;;
68192;SDS011;55012;47.562;18.414;2023-06-10T09:00:58;13.65;;;8.55;;
68192;SDS011;55012;47.562;18.414;2023-06-10T09:03:24;13.70;;;10.20;;
68192;SDS011;55012;47.562;18.414;2023-06-10T09:05:50;13.05;;;9.70;;
68192;SDS011;55012;47.562;18.414;2023-06-10T09:08:16;12.93;;;9.65;;
68192;SDS011;55012;47.562;18.414;2023-06-10T09:10:42;14.43;;;10.38;;
68192;SDS011;55012;47.562;18.414;2023-06-10T09:13:07;12.85;;;9.02;;
68192;SDS011;55012;47.562;18.414;2023-06-10T09:15:33;14.00;;;10.05;;
68192;SDS011;55012;47.562;18.414;2023-06-10T09:17:59;13.60;;;10.32;;
68192;SDS011;55012;47.562;18.414;2023-06-10T09:20:25;12.35;;;9.20;;
68192;SDS011;55012;47.562;18.414;2023-06-10T09:22:50;14.38;;;9.93;;
68192;SDS011;55012;47.562;18.414;2023-06-10T09:25:16;13.63;;;10.07;;
68192;SDS011;55012;47.562;18.414;2023-06-10T09:27:48;14.30;;;9.88;;
68192;SDS011;55012;47.562;18.414;2023-06-10T09:30:28;32.03;;;11.88;;
68192;SDS011;55012;47.562;18.414;2023-06-10T09:32:56;20.60;;;12.40;;
68192;SDS011;55012;47.562;18.414;2023-06-10T09:35:26;21.40;;;12.70;;
68192;SDS011;55012;47.562;18.414;2023-06-10T09:37:52;26.83;;;13.65;;
68192;SDS011;55012;47.562;18.414;2023-06-10T09:40:19;23.85;;;14.32;;
68192;SDS011;55012;47.562;18.414;2023-06-10T09:42:44;27.52;;;14.68;;
68192;SDS011;55012;47.562;18.414;2023-06-10T09:45:10;25.65;;;15.15;;
68192;SDS011;55012;47.562;18.414;2023-06-10T09:47:36;23.30;;;14.52;;
68192;SDS011;55012;47.562;18.414;2023-06-10T09:50:01;18.38;;;11.77;;
68192;SDS011;55012;47.562;18.414;2023-06-10T09:52:28;19.00;;;12.15;;
68192;SDS011;55012;47.562;18.414;2023-06-10T09:54:58;20.27;;;12.43;;
68192;SDS011;55012;47.562;18.414;2023-06-10T09:57:30;28.23;;;13.75;;
68192;SDS011;55012;47.562;18.414;2023-06-10T09:59:57;20.77;;;12.27;;
68192;SDS011;55012;47.562;18.414;2023-06-10T10:02:23;17.40;;;11.25;;
68192;SDS011;55012;47.562;18.414;2023-06-10T10:04:48;14.43;;;9.60;;
68192;SDS011;55012;47.562;18.414;2023-06-10T10:07:14;13.40;;;9.90;;
68192;SDS011;55012;47.562;18.414;2023-06-10T10:09:40;14.82;;;9.73;;
68192;SDS011;55012;47.562;18.414;2023-06-10T10:12:15;14.18;;;9.88;;
68192;SDS011;55012;47.562;18.414;2023-06-10T10:14:43;13.13;;;8.90;;
68192;SDS011;55012;47.562;18.414;2023-06-10T10:17:11;11.90;;;9.27;;
68192;SDS011;55012;47.562;18.414;2023-06-10T10:19:43;13.30;;;9.90;;
68192;SDS011;55012;47.562;18.414;2023-06-10T10:22:33;13.68;;;7.60;;
68192;SDS011;55012;47.562;18.414;2023-06-10T10:25:05;9.65;;;6.60;;
68192;SDS011;55012;47.562;18.414;2023-06-10T10:27:36;8.63;;;6.40;;
68192;SDS011;55012;47.562;18.414;2023-06-10T10:30:16;8.52;;;6.22;;
68192;SDS011;55012;47.562;18.414;2023-06-10T10:35:17;11.00;;;7.00;;
68192;SDS011;55012;47.562;18.414;2023-06-10T10:37:48;9.70;;;6.72;;
68192;SDS011;55012;47.562;18.414;2023-06-10T10:40:14;8.68;;;6.40;;
68192;SDS011;55012;47.562;18.414;2023-06-10T10:42:41;11.20;;;5.95;;
68192;SDS011;55012;47.562;18.414;2023-06-10T10:45:08;10.35;;;5.63;;
68192;SDS011;55012;47.562;18.414;2023-06-10T10:47:34;9.43;;;5.10;;
68192;SDS011;55012;47.562;18.414;2023-06-10T10:50:01;8.35;;;5.30;;
68192;SDS011;55012;47.562;18.414;2023-06-10T10:53:00;7.68;;;5.18;;
68192;SDS011;55012;47.562;18.414;2023-06-10T10:55:27;6.50;;;4.95;;
68192;SDS011;55012;47.562;18.414;2023-06-10T10:57:54;5.80;;;4.88;;
68192;SDS011;55012;47.562;18.414;2023-06-10T11:00:25;5.70;;;4.57;;
68192;SDS011;55012;47.562;18.414;2023-06-10T11:02:53;5.50;;;4.13;;
68192;SDS011;55012;47.562;18.414;2023-06-10T11:05:42;6.57;;;4.60;;
68192;SDS011;55012;47.562;18.414;2023-06-10T11:08:09;5.40;;;4.88;;
68192;SDS011;55012;47.562;18.414;2023-06-10T11:10:39;5.95;;;5.20;;
68192;SDS011;55012;47.562;18.414;2023-06-10T11:13:07;7.40;;;4.57;;
68192;SDS011;55012;47.562;18.414;2023-06-10T11:15:37;7.55;;;5.30;;
68192;SDS011;55012;47.562;18.414;2023-06-10T11:18:12;7.15;;;4.68;;
68192;SDS011;55012;47.562;18.414;2023-06-10T11:20:43;7.00;;;5.00;;
68192;SDS011;55012;47.562;18.414;2023-06-10T11:26:11;7.45;;;4.63;;
68192;SDS011;55012;47.562;18.414;2023-06-10T11:31:23;5.00;;;4.45;;
68192;SDS011;55012;47.562;18.414;2023-06-10T11:33:56;6.05;;;4.90;;
68192;SDS011;55012;47.562;18.414;2023-06-10T11:36:23;5.85;;;4.50;;
68192;SDS011;55012;47.562;18.414;2023-06-10T11:38:50;6.07;;;4.68;;
68192;SDS011;55012;47.562;18.414;2023-06-10T11:41:29;6.07;;;4.72;;
68192;SDS011;55012;47.562;18.414;2023-06-10T11:44:17;6.50;;;5.25;;
68192;SDS011;55012;47.562;18.414;2023-06-10T11:46:41;5.68;;;5.07;;
68192;SDS011;55012;47.562;18.414;2023-06-10T11:49:07;6.00;;;4.68;;
68192;SDS011;55012;47.562;18.414;2023-06-10T11:51:34;6.63;;;4.20;;
68192;SDS011;55012;47.562;18.414;2023-06-10T11:54:01;5.65;;;4.57;;
68192;SDS011;55012;47.562;18.414;2023-06-10T11:56:27;5.22;;;4.40;;
68192;SDS011;55012;47.562;18.414;2023-06-10T11:58:53;4.80;;;4.07;;
68192;SDS011;55012;47.562;18.414;2023-06-10T12:01:25;5.75;;;4.40;;
68192;SDS011;55012;47.562;18.414;2023-06-10T12:11:41;5.78;;;4.72;;
68192;SDS011;55012;47.562;18.414;2023-06-10T12:14:08;5.05;;;4.40;;
68192;SDS011;55012;47.562;18.414;2023-06-10T12:16:33;4.93;;;4.43;;
68192;SDS011;55012;47.562;18.414;2023-06-10T12:19:02;5.45;;;4.32;;
68192;SDS011;55012;47.562;18.414;2023-06-10T12:21:29;6.75;;;4.60;;
68192;SDS011;55012;47.562;18.414;2023-06-10T12:24:14;5.15;;;4.43;;
68192;SDS011;55012;47.562;18.414;2023-06-10T12:26:43;7.00;;;4.82;;
68192;SDS011;55012;47.562;18.414;2023-06-10T12:29:16;6.45;;;5.47;;
68192;SDS011;55012;47.562;18.414;2023-06-10T12:34:30;6.45;;;4.65;;
68192;SDS011;55012;47.562;18.414;2023-06-10T12:37:04;6.05;;;4.63;;
68192;SDS011;55012;47.562;18.414;2023-06-10T12:39:31;5.95;;;4.72;;
68192;SDS011;55012;47.562;18.414;2023-06-10T12:41:58;8.43;;;4.50;;
68192;SDS011;55012;47.562;18.414;2023-06-10T12:44:33;5.90;;;4.43;;
68192;SDS011;55012;47.562;18.414;2023-06-10T12:47:00;8.45;;;4.10;;
68192;SDS011;55012;47.562;18.414;2023-06-10T12:49:31;5.20;;;4.43;;
68192;SDS011;55012;47.562;18.414;2023-06-10T12:51:57;6.60;;;4.35;;
68192;SDS011;55012;47.562;18.414;2023-06-10T12:54:22;5.15;;;3.67;;
68192;SDS011;55012;47.562;18.414;2023-06-10T12:56:48;5.68;;;4.10;;
68192;SDS011;55012;47.562;18.414;2023-06-10T12:59:13;5.28;;;4.10;;
68192;SDS011;55012;47.562;18.414;2023-06-10T13:01:39;5.65;;;4.50;;
68192;SDS011;55012;47.562;18.414;2023-06-10T13:04:05;5.32;;;4.50;;
68192;SDS011;55012;47.562;18.414;2023-06-10T13:06:34;6.88;;;4.95;;
68192;SDS011;55012;47.562;18.414;2023-06-10T13:09:04;4.30;;;3.90;;
68192;SDS011;55012;47.562;18.414;2023-06-10T13:11:31;5.75;;;4.45;;
68192;SDS011;55012;47.562;18.414;2023-06-10T13:13:57;4.80;;;4.30;;
68192;SDS011;55012;47.562;18.414;2023-06-10T13:16:22;4.75;;;3.97;;
68192;SDS011;55012;47.562;18.414;2023-06-10T13:18:48;6.07;;;3.60;;
68192;SDS011;55012;47.562;18.414;2023-06-10T13:21:13;4.28;;;3.88;;
68192;SDS011;55012;47.562;18.414;2023-06-10T13:23:39;6.38;;;5.47;;
68192;SDS011;55012;47.562;18.414;2023-06-10T13:26:04;3.97;;;3.40;;
68192;SDS011;55012;47.562;18.414;2023-06-10T13:28:29;3.85;;;3.50;;
68192;SDS011;55012;47.562;18.414;2023-06-10T13:30:56;4.55;;;3.75;;
68192;SDS011;55012;47.562;18.414;2023-06-10T13:33:21;4.05;;;3.30;;
68192;SDS011;55012;47.562;18.414;2023-06-10T13:35:47;4.30;;;3.90;;
68192;SDS011;55012;47.562;18.414;2023-06-10T13:38:13;3.75;;;3.33;;
68192;SDS011;55012;47.562;18.414;2023-06-10T13:40:38;4.00;;;3.30;;
68192;SDS011;55012;47.562;18.414;2023-06-10T13:43:04;4.60;;;3.70;;
68192;SDS011;55012;47.562;18.414;2023-06-10T13:45:29;3.60;;;3.30;;
68192;SDS011;55012;47.562;18.414;2023-06-10T13:47:55;4.72;;;4.00;;
68192;SDS011;55012;47.562;18.414;2023-06-10T13:50:21;3.90;;;3.50;;
68192;SDS011;55012;47.562;18.414;2023-06-10T13:52:46;3.70;;;3.35;;
68192;SDS011;55012;47.562;18.414;2023-06-10T13:55:12;3.53;;;3.22;;
68192;SDS011;55012;47.562;18.414;2023-06-10T13:57:37;5.88;;;3.70;;
68192;SDS011;55012;47.562;18.414;2023-06-10T14:00:03;4.13;;;3.00;;
68192;SDS011;55012;47.562;18.414;2023-06-10T14:02:29;4.25;;;2.90;;
68192;SDS011;55012;47.562;18.414;2023-06-10T14:04:54;4.53;;;3.58;;
68192;SDS011;55012;47.562;18.414;2023-06-10T14:07:20;4.10;;;3.03;;
68192;SDS011;55012;47.562;18.414;2023-06-10T14:09:45;3.38;;;3.08;;
68192;SDS011;55012;47.562;18.414;2023-06-10T14:12:11;4.03;;;3.30;;
68192;SDS011;55012;47.562;18.414;2023-06-10T14:14:37;6.22;;;4.10;;
68192;SDS011;55012;47.562;18.414;2023-06-10T14:17:03;6.95;;;5.07;;
68192;SDS011;55012;47.562;18.414;2023-06-10T14:19:30;5.30;;;3.80;;
68192;SDS011;55012;47.562;18.414;2023-06-10T14:21:55;5.03;;;4.38;;
68192;SDS011;55012;47.562;18.414;2023-06-10T14:24:20;6.05;;;4.50;;
68192;SDS011;55012;47.562;18.414;2023-06-10T14:26:46;6.95;;;4.43;;
68192;SDS011;55012;47.562;18.414;2023-06-10T14:29:12;7.22;;;4.35;;
68192;SDS011;55012;47.562;18.414;2023-06-10T14:31:43;6.10;;;4.70;;
68192;SDS011;55012;47.562;18.414;2023-06-10T14:34:08;5.70;;;4.05;;
68192;SDS011;55012;47.562;18.414;2023-06-10T14:36:34;6.50;;;4.53;;
68192;SDS011;55012;47.562;18.414;2023-06-10T14:39:00;5.72;;;5.03;;